• Join FlightAware (Why Join?)
  • Login
  • US Flag 
01:30AM EST


 

Airport Tracker/Info


-or-


 

Live Flight TrackerFlight Track Log ✈ EJA396 ✈ 25-Sep-2013 ✈ KALB - KROC

Flight Track Log - Related Links

Times and Time Zones

All times are in EDT time to prevent confusion due to time zone crossing. See the EJA396 flight status page for this flight to view local times or setup timezone preferences in your user account.

Time Position Orientation Groundspeed Altitude Reporting Facility
EDT Latitude Longitude Course Direction KTS MPH feet Rate Location/Type
04:58PM 42.7589 -73.8058 337° Northwest 150 173 1,300  Level Boston Center
04:59PM 42.8108 -73.8353 337° Northwest 203 234 4,000 2,880 Climbing Boston Center
05:00PM 42.8664 -73.8792 330° Northwest 263 303 7,100 3,180 Climbing Boston Center
05:01PM 42.9222 -73.9286 327° Northwest 258 297 10,500 3,720 Climbing Boston Center
05:02PM 42.9900 -73.9897 327° Northwest 264 304 14,700 3,660 Climbing Boston Center
05:03PM 43.0497 -74.0483 324° Northwest 278 320 17,900 2,520 Climbing Boston Center
05:04PM 43.0708 -74.1767 283° West 300 345 19,800 960 Climbing Boston Center
05:06PM 43.0806 -74.3503 274° West 374 430 20,000 60 Climbing Boston Center
05:07PM 43.0886 -74.4842 275° West 391 450 20,000  Level Boston Center
05:08PM 43.0961 -74.6467 274° West 391 450 20,000  Level Boston Center
05:09PM 43.1017 -74.7806 273° West 391 450 20,000  Level Boston Center
05:10PM 43.1069 -74.9286 273° West 391 450 20,000 -360 Level Boston Center
05:11PM 43.1178 -75.0939 275° West 397 457 19,400 -1,020 Descending Boston Center
05:12PM 43.1250 -75.2281 274° West 397 457 18,000 -1,500 Descending Boston Center
05:13PM 43.1278 -75.3647 272° West 385 443 16,500 -1,020 Descending Boston Center
05:14PM 43.1344 -75.5044 274° West 378 435 16,000 -300 Descending Boston Center
05:15PM 43.1411 -75.6472 274° West 373 429 16,000  Level Boston Center
05:16PM 43.1453 -75.7897 272° West 373 429 16,000  Level Boston Center
05:17PM 43.1514 -75.9325 273° West 378 435 16,000  Level Boston Center
05:18PM 43.1553 -76.0722 272° West 378 435 16,000  Level Boston Center
05:19PM 43.1589 -76.2175 272° West 378 435 16,000  Level Boston Center
05:20PM 43.1542 -76.4706 269° West 374 430 16,000  Level Cleveland Center
05:21PM 43.1497 -76.6122 268° West 374 430 16,000  Level Cleveland Center
05:22PM 43.1464 -76.7567 268° West 375 432 16,000 -120 Level Cleveland Center
05:22PM 43.1447 -76.7825 265° West 375 432 15,900 -1,020 Descending Cleveland Center
05:23PM 43.1456 -76.8114 272° West 374 430 15,600 -1,800 Descending Cleveland Center
05:23PM 43.1425 -76.9236 268° West 374 430 14,100 -2,220 Descending Cleveland Center
05:24PM 43.1411 -76.9694 268° West 367 422 13,200 -2,400 Descending Cleveland Center
05:25PM 43.1381 -77.0558 267° West 347 399 11,600 -2,340 Descending Cleveland Center
05:25PM 43.1375 -77.1047 269° West 326 375 10,600 -2,340 Descending Cleveland Center
05:26PM 43.1342 -77.1761 266° West 320 368 9,200 -2,220 Descending Cleveland Center
05:26PM 43.1242 -77.2169 251° West 290 334 8,400 -1,980 Descending Cleveland Center
05:27PM 43.1058 -77.2769 247° West 291 335 7,200 -2,220 Descending Cleveland Center
05:27PM 43.0908 -77.3328 250° West 277 319 6,000 -2,340 Descending Cleveland Center
05:28PM 43.0719 -77.3925 247° West 281 323 4,800 -1,980 Descending Cleveland Center
05:28PM 43.0667 -77.4308 259° West 269 310 4,000 -1,980 Descending Cleveland Center
05:29PM 43.0547 -77.4914 255° West 273 314 2,800 -1,980 Descending Cleveland Center
05:29PM 43.0533 -77.5111 265° West 262 302 2,400 -720 Descending Cleveland Center
05:30PM 43.0489 -77.5794 265° West 249 287 2,100 -360 Descending Cleveland Center
05:30PM 43.0492 -77.5853 274° West 205 236 2,100  Level Cleveland Center
05:31PM 43.0461 -77.6569 267° West 222 255 2,100 -360 Level Cleveland Center
05:32PM 43.0714 -77.7128 302° West 122 140 1,400 -600 Descending Cleveland Center
05:32PM 43.0653 -77.7103 163° South 180 207 1,500 -720 Climbing Cleveland Center
05:33PM 43.0994 -77.6942 19° North 110 127 700 -900 Descending Cleveland Center
05:33PM 43.1003 -77.6911 70° East 132 152 600 -240 Descending Cleveland Center
05:34PM 43.1178 -77.6761 32° Northeast 101 116 500 -120 Descending Cleveland Center